Helm, Mississippi
Current Conditions -  °F | °C
As of 8:53 PM on Friday 31 Oct 2014 (Local Time) from KGLH Reporting Station
Clear Clear  
Wind Chill: 51°   Ceiling: Unl
Heat Index: 51°   Visibility: 10mi
Dew Point: 25°   Wind: 22mph
Humidity: 36%   Direction: 10°N
Pressure: 30.27"   Gusts: 29mph
Location:  33.4469°N, 90.8665°W
Report Text: KGLH 010153Z AUTO 01019G25KT 10SM CLR 11/M04 A3027 RMK AO2 PK WND 01029/0141 SLP258 T01061039
Loading
Personal Weather Stations






























Interactive Weather Map
Tropical Storm Tracking
New forecast layout! Learn more

10-Day Weather Forecast

Advertisements
Track Severe Weather on mobile